createdAt,value
2017-11-29T00:01:07.975Z,23.80
2017-11-29T00:03:34.250Z,26.50
2017-11-29T00:06:00.503Z,23.67
2017-11-29T00:08:26.764Z,23.12
2017-11-29T00:10:53.007Z,25.05
2017-11-29T00:13:19.233Z,32.33
2017-11-29T00:15:46.268Z,25.45
2017-11-29T00:18:12.498Z,27.13
2017-11-29T00:20:38.793Z,25.88
2017-11-29T00:23:05.010Z,25.65
2017-11-29T00:25:31.230Z,23.48
2017-11-29T00:27:57.531Z,28.10
2017-11-29T00:30:24.507Z,23.27
2017-11-29T00:32:50.747Z,25.73
2017-11-29T00:35:16.978Z,23.25
2017-11-29T00:37:43.207Z,27.00
2017-11-29T00:40:09.511Z,21.17
2017-11-29T00:42:35.767Z,23.83
2017-11-29T00:45:02.021Z,22.17
2017-11-29T00:47:29.040Z,21.42
2017-11-29T00:49:55.292Z,25.15
2017-11-29T00:52:21.528Z,23.60
2017-11-29T00:54:48.512Z,23.83
2017-11-29T00:57:14.748Z,23.45
2017-11-29T00:59:41.022Z,23.42
2017-11-29T01:02:07.251Z,22.83
2017-11-29T01:04:33.487Z,26.52
2017-11-29T01:06:59.744Z,25.25
2017-11-29T01:09:25.984Z,32.83
2017-11-29T01:11:52.187Z,27.85
2017-11-29T01:14:19.225Z,26.08
2017-11-29T01:16:45.524Z,27.27
2017-11-29T01:19:11.766Z,28.05
2017-11-29T01:21:37.994Z,26.87
2017-11-29T01:24:04.219Z,33.58
2017-11-29T01:26:31.199Z,27.80
2017-11-29T01:28:57.414Z,31.87
2017-11-29T01:31:23.743Z,28.55
2017-11-29T01:33:50.758Z,29.70
2017-11-29T01:36:17.007Z,24.48
2017-11-29T01:38:43.199Z,29.45
2017-11-29T01:41:09.518Z,29.35
2017-11-29T01:43:35.764Z,27.70
2017-11-29T01:46:02.013Z,30.05
2017-11-29T01:48:28.297Z,26.12
2017-11-29T01:50:54.528Z,30.92
2017-11-29T01:53:20.746Z,29.90
2017-11-29T01:55:46.971Z,28.50
2017-11-29T01:58:13.207Z,32.65
2017-11-29T02:00:47.470Z,28.95
2017-11-29T02:03:13.797Z,29.05
2017-11-29T02:05:40.765Z,27.45
2017-11-29T02:08:07.023Z,26.83
2017-11-29T02:10:33.263Z,24.23
2017-11-29T02:12:59.470Z,32.72
2017-11-29T02:15:25.727Z,26.65
2017-11-29T02:17:51.938Z,24.42
2017-11-29T02:20:18.195Z,27.23
2017-11-29T02:22:44.430Z,24.58
2017-11-29T02:25:11.415Z,24.55
2017-11-29T02:27:37.683Z,22.40
2017-11-29T02:30:03.905Z,24.90
2017-11-29T02:32:30.152Z,27.25
2017-11-29T02:34:56.389Z,26.87
2017-11-29T02:37:23.408Z,26.90
2017-11-29T02:40:02.105Z,24.05
2017-11-29T02:42:36.401Z,21.27
2017-11-29T02:45:02.692Z,28.20
2017-11-29T02:47:29.635Z,25.35
2017-11-29T02:49:55.889Z,23.85
2017-11-29T02:52:22.120Z,28.12
2017-11-29T02:54:48.358Z,25.42
2017-11-29T02:57:14.851Z,24.73
2017-11-29T02:59:41.098Z,27.00
2017-11-29T03:02:07.352Z,25.90
2017-11-29T03:04:33.590Z,24.95
2017-11-29T03:06:59.835Z,26.58
2017-11-29T03:09:26.122Z,27.08
2017-11-29T03:11:53.067Z,24.90
2017-11-29T03:14:19.301Z,28.12
2017-11-29T03:16:45.576Z,25.55
2017-11-29T03:19:11.783Z,29.12
2017-11-29T03:21:38.017Z,25.98
2017-11-29T03:24:04.270Z,26.23
2017-11-29T03:26:31.270Z,24.58
2017-11-29T03:28:57.558Z,26.77
2017-11-29T03:31:23.926Z,25.83
2017-11-29T03:33:50.175Z,21.73
2017-11-29T03:36:16.419Z,24.17
2017-11-29T03:38:43.398Z,26.25
2017-11-29T03:41:09.625Z,24.25
2017-11-29T03:43:35.855Z,25.33
2017-11-29T03:46:02.098Z,26.45
2017-11-29T03:48:28.315Z,26.70
2017-11-29T03:50:54.555Z,21.77
2017-11-29T03:53:20.826Z,23.73
2017-11-29T03:55:47.063Z,25.50
2017-11-29T03:58:14.040Z,22.50
2017-11-29T04:04:10.188Z,20.83
2017-11-29T04:06:36.425Z,22.42
2017-11-29T04:09:02.494Z,27.77
2017-11-29T04:11:29.267Z,26.73
2017-11-29T04:13:55.573Z,22.77
2017-11-29T04:16:22.351Z,24.23
2017-11-29T04:18:48.385Z,23.08
2017-11-29T04:21:14.422Z,21.42
2017-11-29T04:23:40.453Z,25.83
2017-11-29T04:26:06.503Z,20.27
2017-11-29T04:28:33.330Z,22.80
2017-11-29T04:31:00.116Z,25.65
2017-11-29T04:33:26.178Z,22.87
2017-11-29T04:35:52.234Z,28.70
2017-11-29T04:38:18.280Z,21.48
2017-11-29T04:40:44.363Z,27.42
2017-11-29T04:43:11.151Z,25.80
2017-11-29T04:45:37.192Z,25.98
2017-11-29T04:48:03.222Z,24.83
2017-11-29T04:50:29.263Z,26.58
2017-11-29T04:52:56.037Z,27.17
2017-11-29T04:55:22.067Z,24.75
2017-11-29T04:57:48.103Z,24.42
2017-11-29T05:00:14.211Z,20.92
2017-11-29T05:02:40.247Z,23.02
2017-11-29T05:05:06.279Z,23.40
2017-11-29T05:07:32.310Z,28.52
2017-11-29T05:09:58.342Z,27.05
2017-11-29T05:12:24.384Z,23.75
2017-11-29T05:14:51.234Z,23.17
2017-11-29T05:17:18.021Z,30.42
2017-11-29T05:19:44.062Z,26.17
2017-11-29T05:22:10.115Z,23.17
2017-11-29T05:24:36.154Z,25.77
2017-11-29T05:27:02.195Z,32.85
2017-11-29T05:29:28.224Z,29.85
2017-11-29T05:31:55.335Z,28.38
2017-11-29T05:34:22.098Z,40.08
2017-11-29T05:36:48.137Z,32.33
2017-11-29T05:39:14.176Z,31.60
2017-11-29T05:41:40.193Z,35.45
2017-11-29T05:44:06.252Z,36.00
2017-11-29T05:46:32.283Z,32.35
2017-11-29T05:48:59.140Z,34.97
2017-11-29T05:51:25.211Z,31.50
2017-11-29T05:53:51.340Z,32.60
2017-11-29T05:56:18.168Z,32.90
2017-11-29T05:58:44.197Z,35.55
2017-11-29T06:01:10.248Z,38.33
2017-11-29T06:03:36.283Z,31.08
2017-11-29T06:06:03.084Z,39.17
2017-11-29T06:08:29.115Z,33.40
2017-11-29T06:10:55.175Z,29.77
2017-11-29T06:13:21.228Z,33.65
2017-11-29T06:15:47.267Z,32.88
2017-11-29T06:18:13.327Z,39.65
2017-11-29T06:20:40.111Z,32.75
2017-11-29T06:23:06.155Z,37.95
2017-11-29T06:25:32.206Z,32.63
2017-11-29T06:27:58.354Z,37.50
2017-11-29T06:30:25.127Z,31.23
2017-11-29T06:32:51.171Z,34.65
2017-11-29T06:35:17.223Z,33.20
2017-11-29T06:37:43.267Z,35.90
2017-11-29T06:40:10.035Z,33.92
2017-11-29T06:42:36.067Z,29.55
2017-11-29T06:45:02.107Z,31.60
2017-11-29T06:47:28.157Z,33.70
2017-11-29T06:49:54.944Z,30.55
2017-11-29T06:52:21.037Z,34.75
2017-11-29T06:54:47.072Z,36.38
2017-11-29T06:57:13.110Z,35.25
2017-11-29T06:59:39.196Z,32.50
2017-11-29T07:02:05.982Z,35.45
2017-11-29T07:04:32.016Z,39.55
2017-11-29T07:06:58.055Z,33.95
2017-11-29T07:09:24.254Z,29.75
2017-11-29T07:11:50.318Z,32.95
2017-11-29T07:14:16.752Z,27.17
2017-11-29T07:16:42.907Z,31.27
2017-11-29T07:19:09.683Z,30.55
2017-11-29T07:21:35.715Z,32.90
2017-11-29T07:24:01.789Z,33.70
2017-11-29T07:26:27.903Z,35.10
2017-11-29T07:28:54.692Z,30.60
2017-11-29T07:31:20.788Z,33.10
2017-11-29T07:33:46.862Z,33.97
2017-11-29T07:36:12.909Z,35.53
2017-11-29T07:38:39.725Z,38.33
2017-11-29T07:41:05.770Z,36.05
2017-11-29T07:43:32.542Z,35.45
2017-11-29T07:45:58.620Z,34.63
2017-11-29T07:48:24.677Z,35.15
2017-11-29T07:50:50.691Z,35.20
2017-11-29T07:53:16.748Z,34.53
2017-11-29T07:55:42.803Z,36.03
2017-11-29T07:58:08.832Z,30.85
2017-11-29T08:00:34.868Z,34.25
2017-11-29T08:03:01.670Z,37.53
2017-11-29T08:05:27.724Z,30.95
2017-11-29T08:07:53.743Z,30.00
2017-11-29T08:10:19.888Z,32.88
2017-11-29T08:12:45.999Z,28.98
2017-11-29T08:15:12.235Z,34.30
2017-11-29T08:17:39.214Z,35.75
2017-11-29T08:20:05.444Z,31.48
2017-11-29T08:22:31.703Z,31.23
2017-11-29T08:24:57.964Z,34.28
2017-11-29T08:27:24.318Z,31.67
2017-11-29T08:29:51.316Z,28.70
2017-11-29T08:32:18.332Z,33.63
2017-11-29T08:34:44.587Z,27.92
2017-11-29T08:37:11.590Z,31.48
2017-11-29T08:39:37.847Z,30.70
2017-11-29T08:42:04.827Z,32.70
2017-11-29T08:44:31.094Z,27.65
2017-11-29T08:46:57.424Z,26.45
2017-11-29T08:49:23.662Z,30.98
2017-11-29T08:51:49.895Z,26.05
2017-11-29T08:54:16.137Z,30.88
2017-11-29T08:56:42.365Z,28.60
2017-11-29T08:59:08.619Z,23.10
2017-11-29T09:01:35.606Z,27.37
2017-11-29T09:04:02.551Z,27.83
2017-11-29T09:06:28.789Z,27.40
2017-11-29T09:08:55.047Z,25.25
2017-11-29T09:11:22.834Z,23.62
2017-11-29T09:13:49.816Z,24.77
2017-11-29T09:16:16.065Z,28.35
2017-11-29T09:18:43.040Z,23.12
2017-11-29T09:21:10.039Z,20.27
2017-11-29T09:23:36.258Z,24.02
2017-11-29T09:26:02.495Z,20.33
2017-11-29T09:28:28.752Z,19.00
2017-11-29T09:30:55.770Z,23.65
2017-11-29T09:33:21.980Z,26.90
2017-11-29T09:35:48.241Z,19.90
2017-11-29T09:38:14.490Z,22.33
2017-11-29T09:40:41.483Z,18.80
2017-11-29T09:43:07.727Z,20.48
2017-11-29T09:45:33.972Z,22.30
2017-11-29T09:48:00.955Z,24.23
2017-11-29T09:50:27.189Z,20.85
2017-11-29T09:52:54.168Z,20.85
2017-11-29T09:55:24.105Z,22.00
2017-11-29T09:57:51.225Z,23.98
2017-11-29T10:00:17.477Z,25.85
2017-11-29T10:02:43.724Z,18.12
2017-11-29T10:05:09.989Z,23.85
2017-11-29T10:07:36.248Z,20.95
2017-11-29T10:10:02.501Z,25.02
2017-11-29T10:12:28.730Z,24.85
2017-11-29T10:14:54.955Z,28.12
2017-11-29T10:17:21.230Z,23.40
2017-11-29T10:19:47.482Z,21.27
2017-11-29T10:22:13.740Z,22.65
2017-11-29T10:24:44.677Z,24.87
2017-11-29T10:27:11.978Z,21.87
2017-11-29T10:29:38.243Z,25.12
2017-11-29T10:32:04.495Z,31.75
2017-11-29T10:34:31.479Z,24.55
2017-11-29T10:36:57.722Z,31.77
2017-11-29T10:39:23.959Z,21.92
2017-11-29T10:41:50.247Z,25.05
2017-11-29T10:44:16.482Z,17.75
2017-11-29T10:46:42.728Z,18.52
2017-11-29T10:49:08.992Z,22.08
2017-11-29T10:51:35.331Z,21.85
2017-11-29T10:54:02.319Z,18.08
2017-11-29T10:56:28.555Z,22.30
2017-11-29T10:58:54.775Z,21.50
2017-11-29T11:01:21.029Z,20.85
2017-11-29T11:03:47.307Z,22.62
2017-11-29T11:06:13.547Z,26.12
2017-11-29T11:08:39.792Z,23.20
2017-11-29T11:11:06.019Z,20.98
2017-11-29T11:13:32.273Z,21.65
2017-11-29T11:15:58.483Z,26.73
2017-11-29T11:18:25.518Z,23.45
2017-11-29T11:20:51.771Z,18.27
2017-11-29T11:23:18.019Z,22.02
2017-11-29T11:25:45.006Z,18.67
2017-11-29T11:28:11.271Z,20.65
2017-11-29T11:30:37.519Z,22.15
2017-11-29T11:33:04.547Z,19.58
2017-11-29T11:35:30.834Z,20.92
2017-11-29T11:37:57.058Z,19.50
2017-11-29T11:40:23.328Z,22.83
2017-11-29T11:42:49.554Z,16.75
2017-11-29T11:45:15.805Z,20.98
2017-11-29T11:47:42.032Z,18.30
2017-11-29T11:50:08.307Z,25.08
2017-11-29T11:52:34.534Z,21.25
2017-11-29T11:55:00.745Z,18.70
2017-11-29T11:57:26.997Z,18.35
2017-11-29T11:59:53.243Z,17.15
2017-11-29T12:02:19.490Z,26.85
2017-11-29T12:04:46.506Z,23.80
2017-11-29T12:07:12.799Z,25.77
2017-11-29T12:09:39.031Z,19.92
2017-11-29T12:12:05.259Z,20.00
2017-11-29T12:14:31.494Z,23.25
2017-11-29T12:16:57.763Z,22.92
2017-11-29T12:19:24.775Z,21.10
2017-11-29T12:21:51.024Z,19.77
2017-11-29T12:24:17.249Z,20.58
2017-11-29T12:26:43.487Z,17.23
2017-11-29T12:29:10.479Z,21.37
2017-11-29T12:31:36.711Z,16.17
2017-11-29T12:34:02.977Z,22.20
2017-11-29T12:36:29.215Z,20.12
2017-11-29T12:38:55.476Z,16.83
2017-11-29T12:41:21.727Z,23.30
2017-11-29T12:43:47.965Z,18.50
2017-11-29T12:46:14.223Z,25.33
2017-11-29T12:48:52.640Z,21.87
2017-11-29T12:51:18.871Z,15.32
2017-11-29T12:53:45.091Z,17.50
2017-11-29T12:56:12.125Z,15.25
2017-11-29T12:58:39.124Z,18.60
2017-11-29T13:01:05.376Z,16.80
2017-11-29T13:03:31.635Z,19.37
2017-11-29T13:05:57.866Z,19.17
2017-11-29T13:08:24.907Z,20.73
2017-11-29T13:10:51.156Z,20.87
2017-11-29T13:13:18.288Z,20.00
2017-11-29T13:15:44.551Z,17.40
2017-11-29T13:18:10.798Z,17.55
2017-11-29T13:20:37.830Z,19.30
2017-11-29T13:23:04.063Z,15.87
2017-11-29T13:25:30.287Z,18.50
2017-11-29T13:27:56.543Z,15.87
2017-11-29T13:30:22.807Z,15.53
2017-11-29T13:32:49.072Z,14.80
2017-11-29T13:35:15.327Z,14.67
2017-11-29T13:37:41.566Z,18.90
2017-11-29T13:40:07.799Z,13.83
2017-11-29T13:42:34.059Z,13.83
2017-11-29T13:45:01.044Z,13.27
2017-11-29T13:47:27.292Z,18.10
2017-11-29T13:49:53.530Z,12.03
2017-11-29T13:52:19.790Z,16.33
2017-11-29T13:54:46.110Z,16.30
2017-11-29T13:57:13.108Z,16.17
2017-11-29T13:59:39.342Z,14.30
2017-11-29T14:02:05.591Z,18.07
2017-11-29T14:04:32.642Z,20.37
2017-11-29T14:07:00.318Z,19.10
2017-11-29T14:09:27.323Z,16.10
2017-11-29T14:11:53.582Z,15.83
2017-11-29T14:14:19.899Z,16.83
2017-11-29T14:16:46.127Z,14.90
2017-11-29T14:19:12.384Z,16.95
2017-11-29T14:21:38.662Z,14.77
2017-11-29T14:24:04.903Z,15.50
2017-11-29T14:26:31.115Z,17.58
2017-11-29T14:28:57.360Z,14.70
2017-11-29T14:31:23.594Z,19.27
2017-11-29T14:33:50.574Z,20.00
2017-11-29T14:36:16.819Z,16.58
2017-11-29T14:38:43.038Z,17.67
2017-11-29T14:41:09.272Z,19.48
2017-11-29T14:43:35.548Z,27.50
2017-11-29T14:46:02.547Z,19.10
2017-11-29T14:48:28.781Z,20.00
2017-11-29T14:50:55.012Z,18.25
2017-11-29T14:53:21.307Z,18.10
2017-11-29T14:55:47.550Z,23.10
2017-11-29T14:58:13.785Z,24.40
2017-11-29T15:00:41.080Z,30.00
2017-11-29T15:03:08.088Z,21.50
2017-11-29T15:05:34.354Z,20.02
2017-11-29T15:08:01.319Z,22.05
2017-11-29T15:10:27.564Z,23.50
2017-11-29T15:12:53.862Z,20.37
2017-11-29T15:15:20.154Z,23.73
2017-11-29T15:17:46.358Z,22.20
2017-11-29T15:20:12.635Z,21.45
2017-11-29T15:22:39.634Z,24.02
2017-11-29T15:25:06.014Z,25.00
2017-11-29T15:27:33.023Z,29.15
2017-11-29T15:29:59.278Z,22.45
2017-11-29T15:32:26.285Z,20.67
2017-11-29T15:34:52.519Z,24.48
2017-11-29T15:37:18.760Z,29.98
2017-11-29T15:39:44.986Z,28.30
2017-11-29T15:42:11.195Z,22.45
2017-11-29T15:44:37.463Z,21.17
2017-11-29T15:47:03.799Z,25.60
2017-11-29T15:49:30.178Z,28.65
2017-11-29T15:51:56.418Z,27.85
2017-11-29T15:54:24.152Z,31.80
2017-11-29T15:56:50.445Z,29.10
2017-11-29T15:59:16.663Z,28.12
2017-11-29T16:01:42.900Z,27.33
2017-11-29T16:04:09.888Z,24.87
2017-11-29T16:06:36.130Z,32.45
2017-11-29T16:09:02.405Z,36.75
2017-11-29T16:11:29.377Z,32.47
2017-11-29T16:13:56.415Z,29.00
2017-11-29T16:16:22.631Z,31.33
2017-11-29T16:18:48.963Z,27.75
2017-11-29T16:21:15.270Z,27.05
2017-11-29T16:23:41.560Z,26.52
2017-11-29T16:26:07.815Z,28.27
2017-11-29T16:28:34.911Z,26.45
2017-11-29T16:31:01.236Z,28.12
2017-11-29T16:33:27.576Z,30.33
2017-11-29T16:35:53.844Z,39.80
2017-11-29T16:38:20.091Z,41.97
2017-11-29T16:40:46.467Z,40.33
2017-11-29T16:43:12.773Z,41.37
2017-11-29T16:45:39.084Z,43.78
2017-11-29T16:48:05.518Z,39.58
2017-11-29T16:50:32.356Z,43.38
2017-11-29T16:52:59.189Z,38.42
2017-11-29T16:55:26.060Z,39.60
2017-11-29T16:57:52.159Z,40.85
2017-11-29T17:00:19.114Z,38.45
2017-11-29T17:02:45.944Z,41.40
2017-11-29T17:05:12.787Z,42.35
2017-11-29T17:07:39.567Z,37.05
2017-11-29T17:10:05.622Z,34.83
2017-11-29T17:12:31.812Z,38.75
2017-11-29T17:14:58.728Z,39.25
2017-11-29T17:17:25.576Z,42.72
2017-11-29T17:19:52.349Z,39.20
2017-11-29T17:22:18.442Z,45.92
2017-11-29T17:24:44.502Z,40.78
2017-11-29T17:27:10.552Z,37.53
2017-11-29T17:29:48.956Z,40.58
2017-11-29T17:32:15.203Z,49.60
2017-11-29T17:34:41.421Z,45.92
2017-11-29T17:37:08.427Z,45.83
2017-11-29T17:39:34.703Z,48.38
2017-11-29T17:42:00.931Z,47.20
2017-11-29T17:44:27.938Z,45.55
2017-11-29T17:46:54.221Z,45.47
2017-11-29T17:49:21.275Z,46.00
2017-11-29T17:51:47.633Z,45.55
2017-11-29T17:54:13.862Z,42.15
2017-11-29T17:56:40.794Z,44.97
2017-11-29T17:59:07.014Z,42.15
2017-11-29T18:01:33.293Z,48.33
2017-11-29T18:04:00.458Z,51.37
2017-11-29T18:06:26.689Z,44.75
2017-11-29T18:08:53.728Z,52.33
2017-11-29T18:11:20.075Z,46.37
2017-11-29T18:13:47.104Z,48.38
2017-11-29T18:16:14.186Z,43.53
2017-11-29T18:18:40.473Z,63.75
2017-11-29T18:21:06.700Z,45.50
2017-11-29T18:23:33.707Z,47.88
2017-11-29T18:25:59.993Z,42.55
2017-11-29T18:28:26.251Z,48.25
2017-11-29T18:30:52.507Z,54.75
2017-11-29T18:33:18.911Z,46.42
2017-11-29T18:35:45.162Z,50.25
2017-11-29T18:38:11.406Z,58.72
2017-11-29T18:40:37.655Z,63.97
2017-11-29T18:43:03.887Z,50.58
2017-11-29T18:45:30.989Z,51.90
2017-11-29T18:47:57.199Z,50.50
2017-11-29T18:50:23.440Z,54.42
2017-11-29T18:52:49.706Z,64.10
2017-11-29T18:55:16.739Z,56.05
2017-11-29T18:57:42.989Z,86.60
2017-11-29T19:00:10.014Z,71.85
2017-11-29T19:02:36.058Z,77.93
2017-11-29T19:05:02.099Z,72.32
2017-11-29T19:07:28.144Z,62.33
2017-11-29T19:09:54.352Z,66.00
2017-11-29T19:12:20.439Z,54.47
2017-11-29T19:14:47.306Z,66.53
2017-11-29T19:17:13.360Z,66.68
2017-11-29T19:19:40.156Z,60.85
2017-11-29T19:22:06.280Z,59.60
2017-11-29T19:24:33.151Z,52.35
2017-11-29T19:26:59.179Z,63.70
2017-11-29T19:29:25.279Z,68.60
2017-11-29T19:31:51.343Z,58.70
2017-11-29T19:34:17.450Z,58.13
2017-11-29T19:36:43.512Z,60.60
2017-11-29T19:39:09.565Z,56.63
2017-11-29T19:41:36.344Z,56.17
2017-11-29T19:44:02.375Z,63.65
2017-11-29T19:46:29.278Z,57.88
2017-11-29T19:48:55.417Z,57.70
2017-11-29T19:51:21.739Z,57.40
2017-11-29T19:53:47.776Z,54.35
2017-11-29T19:56:13.821Z,53.13
2017-11-29T19:58:39.973Z,63.70
2017-11-29T20:01:06.840Z,60.72
2017-11-29T20:03:32.964Z,60.92
2017-11-29T20:05:59.034Z,48.30
2017-11-29T20:08:25.078Z,52.03
2017-11-29T20:10:51.886Z,49.85
2017-11-29T20:13:17.955Z,60.95
2017-11-29T20:15:44.808Z,61.13
2017-11-29T20:18:11.592Z,56.42
2017-11-29T20:20:38.425Z,81.45
2017-11-29T20:23:04.482Z,66.93
2017-11-29T20:25:30.569Z,59.17
2017-11-29T20:27:56.679Z,64.47
2017-11-29T20:30:22.859Z,69.68
2017-11-29T20:32:48.898Z,63.33
2017-11-29T20:35:15.694Z,75.43
2017-11-29T20:37:41.762Z,84.18
2017-11-29T20:40:07.889Z,86.90
2017-11-29T20:42:34.728Z,81.37
2017-11-29T20:45:01.511Z,98.80
2017-11-29T20:47:27.550Z,87.85
2017-11-29T20:49:54.334Z,94.55
2017-11-29T20:52:33.657Z,84.07
2017-11-29T20:54:59.907Z,72.65
2017-11-29T20:57:26.258Z,52.38
2017-11-29T20:59:52.560Z,53.08
2017-11-29T21:02:19.540Z,55.85
2017-11-29T21:04:45.822Z,48.42
2017-11-29T21:07:12.803Z,56.88
2017-11-29T21:09:39.747Z,44.28
2017-11-29T21:12:06.083Z,46.00
2017-11-29T21:14:33.026Z,44.80
2017-11-29T21:16:59.275Z,49.80
2017-11-29T21:19:25.514Z,43.80
2017-11-29T21:21:51.867Z,53.38
2017-11-29T21:24:18.854Z,60.05
2017-11-29T21:26:45.179Z,52.25
2017-11-29T21:29:11.442Z,48.70
2017-11-29T21:31:37.731Z,50.40
2017-11-29T21:34:03.994Z,44.40
2017-11-29T21:36:31.158Z,50.90
2017-11-29T21:38:58.155Z,47.80
2017-11-29T21:41:24.382Z,44.17
2017-11-29T21:43:50.626Z,45.75
2017-11-29T21:46:16.866Z,50.28
2017-11-29T21:48:43.282Z,43.42
2017-11-29T21:51:09.521Z,44.58
2017-11-29T21:53:35.779Z,53.83
2017-11-29T21:56:02.013Z,47.47
2017-11-29T21:58:28.227Z,44.85
2017-11-29T22:00:54.502Z,43.80
2017-11-29T22:03:20.852Z,39.60
2017-11-29T22:05:47.107Z,44.40
2017-11-29T22:08:13.351Z,44.40
2017-11-29T22:10:40.143Z,41.58
2017-11-29T22:13:06.167Z,39.42
2017-11-29T22:15:32.199Z,49.65
2017-11-29T22:17:58.247Z,44.08
2017-11-29T22:20:24.300Z,44.85
2017-11-29T22:22:50.346Z,44.72
2017-11-29T22:25:16.402Z,49.30
2017-11-29T22:27:42.454Z,55.65
2017-11-29T22:30:09.280Z,54.00
2017-11-29T22:32:35.323Z,48.15
2017-11-29T22:35:02.147Z,47.90
2017-11-29T22:37:28.987Z,48.83
2017-11-29T22:39:55.121Z,47.15
2017-11-29T22:42:21.919Z,46.95
2017-11-29T22:44:47.970Z,56.55
2017-11-29T22:47:14.019Z,48.35
2017-11-29T22:49:41.001Z,52.20
2017-11-29T22:52:07.036Z,48.63
2017-11-29T22:54:33.074Z,44.70
2017-11-29T22:56:59.105Z,43.30
2017-11-29T22:59:25.147Z,46.05
2017-11-29T23:01:51.942Z,43.00
2017-11-29T23:04:18.005Z,41.88
2017-11-29T23:06:44.020Z,48.28
2017-11-29T23:09:10.862Z,52.35
2017-11-29T23:11:36.911Z,49.38
2017-11-29T23:14:02.974Z,50.78
2017-11-29T23:16:29.011Z,48.72
2017-11-29T23:18:55.046Z,47.25
2017-11-29T23:21:21.120Z,44.17
2017-11-29T23:23:47.246Z,43.28
2017-11-29T23:26:13.304Z,49.65
2017-11-29T23:28:39.354Z,44.10
2017-11-29T23:31:06.132Z,42.38
2017-11-29T23:33:32.182Z,39.00
2017-11-29T23:35:58.234Z,45.42
2017-11-29T23:38:24.280Z,42.30
2017-11-29T23:40:50.401Z,42.58
2017-11-29T23:43:17.167Z,41.55
2017-11-29T23:45:43.216Z,43.30
2017-11-29T23:48:09.261Z,40.47
2017-11-29T23:50:35.290Z,43.92
2017-11-29T23:53:02.066Z,39.53
2017-11-29T23:55:28.101Z,49.97
2017-11-29T23:57:54.136Z,39.75
